sensor_id;sensor_type;location;lat;lon;timestamp;P1;P2;P0
74333;PMS5003;62753;40.394;-80.022;2023-02-16T00:01:48;3;2;
74333;PMS5003;62753;40.394;-80.022;2023-02-16T00:04:14;3;3;
74333;PMS5003;62753;40.394;-80.022;2023-02-16T00:06:39;4;2;
74333;PMS5003;62753;40.394;-80.022;2023-02-16T00:09:04;4;3;
74333;PMS5003;62753;40.394;-80.022;2023-02-16T00:11:30;4;3;
74333;PMS5003;62753;40.394;-80.022;2023-02-16T00:13:54;5;4;
74333;PMS5003;62753;40.394;-80.022;2023-02-16T00:16:20;1;1;
74333;PMS5003;62753;40.394;-80.022;2023-02-16T00:18:45;3;3;
74333;PMS5003;62753;40.394;-80.022;2023-02-16T00:21:10;4;3;
74333;PMS5003;62753;40.394;-80.022;2023-02-16T00:23:35;2;1;
74333;PMS5003;62753;40.394;-80.022;2023-02-16T00:26:00;5;4;
74333;PMS5003;62753;40.394;-80.022;2023-02-16T00:28:25;3;3;
74333;PMS5003;62753;40.394;-80.022;2023-02-16T00:30:51;2;2;
74333;PMS5003;62753;40.394;-80.022;2023-02-16T00:33:17;3;2;
74333;PMS5003;62753;40.394;-80.022;2023-02-16T00:35:42;3;2;
74333;PMS5003;62753;40.394;-80.022;2023-02-16T00:38:07;3;3;
74333;PMS5003;62753;40.394;-80.022;2023-02-16T00:40:32;2;2;
74333;PMS5003;62753;40.394;-80.022;2023-02-16T00:42:57;3;3;
74333;PMS5003;62753;40.394;-80.022;2023-02-16T00:45:22;3;3;
74333;PMS5003;62753;40.394;-80.022;2023-02-16T00:47:48;3;3;
74333;PMS5003;62753;40.394;-80.022;2023-02-16T00:50:14;3;3;
74333;PMS5003;62753;40.394;-80.022;2023-02-16T00:52:39;2;2;
74333;PMS5003;62753;40.394;-80.022;2023-02-16T00:55:04;3;3;
74333;PMS5003;62753;40.394;-80.022;2023-02-16T00:57:31;5;5;
74333;PMS5003;62753;40.394;-80.022;2023-02-16T00:59:55;5;5;
74333;PMS5003;62753;40.394;-80.022;2023-02-16T01:02:19;4;4;
74333;PMS5003;62753;40.394;-80.022;2023-02-16T01:04:44;3;3;
74333;PMS5003;62753;40.394;-80.022;2023-02-16T01:07:11;5;3;
74333;PMS5003;62753;40.394;-80.022;2023-02-16T01:09:35;2;2;
74333;PMS5003;62753;40.394;-80.022;2023-02-16T01:12:01;3;3;
74333;PMS5003;62753;40.394;-80.022;2023-02-16T01:14:27;2;2;
74333;PMS5003;62753;40.394;-80.022;2023-02-16T01:16:52;4;2;
74333;PMS5003;62753;40.394;-80.022;2023-02-16T01:19:17;3;3;
74333;PMS5003;62753;40.394;-80.022;2023-02-16T01:21:42;4;4;
74333;PMS5003;62753;40.394;-80.022;2023-02-16T01:24:07;3;3;
74333;PMS5003;62753;40.394;-80.022;2023-02-16T01:26:46;9;5;
74333;PMS5003;62753;40.394;-80.022;2023-02-16T01:28:59;3;2;
74333;PMS5003;62753;40.394;-80.022;2023-02-16T01:31:24;3;2;
74333;PMS5003;62753;40.394;-80.022;2023-02-16T01:33:49;2;2;
74333;PMS5003;62753;40.394;-80.022;2023-02-16T01:36:17;4;3;
74333;PMS5003;62753;40.394;-80.022;2023-02-16T01:38:39;4;2;
74333;PMS5003;62753;40.394;-80.022;2023-02-16T01:41:08;3;3;
74333;PMS5003;62753;40.394;-80.022;2023-02-16T01:43:32;2;2;
74333;PMS5003;62753;40.394;-80.022;2023-02-16T01:45:58;6;4;
74333;PMS5003;62753;40.394;-80.022;2023-02-16T01:48:21;2;2;
74333;PMS5003;62753;40.394;-80.022;2023-02-16T01:50:47;2;1;
74333;PMS5003;62753;40.394;-80.022;2023-02-16T01:53:13;6;3;
74333;PMS5003;62753;40.394;-80.022;2023-02-16T01:55:37;3;3;
74333;PMS5003;62753;40.394;-80.022;2023-02-16T01:58:03;5;3;
74333;PMS5003;62753;40.394;-80.022;2023-02-16T02:00:28;6;4;
74333;PMS5003;62753;40.394;-80.022;2023-02-16T02:02:53;3;3;
74333;PMS5003;62753;40.394;-80.022;2023-02-16T02:05:20;4;3;
74333;PMS5003;62753;40.394;-80.022;2023-02-16T02:07:44;4;2;
74333;PMS5003;62753;40.394;-80.022;2023-02-16T02:10:10;3;2;
74333;PMS5003;62753;40.394;-80.022;2023-02-16T02:12:35;3;2;
74333;PMS5003;62753;40.394;-80.022;2023-02-16T02:14:59;4;3;
74333;PMS5003;62753;40.394;-80.022;2023-02-16T02:17:24;3;2;
74333;PMS5003;62753;40.394;-80.022;2023-02-16T02:19:53;3;3;
74333;PMS5003;62753;40.394;-80.022;2023-02-16T02:22:21;5;4;
74333;PMS5003;62753;40.394;-80.022;2023-02-16T02:27:09;2;2;
74333;PMS5003;62753;40.394;-80.022;2023-02-16T02:29:36;3;3;
74333;PMS5003;62753;40.394;-80.022;2023-02-16T02:31:58;7;3;
74333;PMS5003;62753;40.394;-80.022;2023-02-16T02:34:22;5;4;
74333;PMS5003;62753;40.394;-80.022;2023-02-16T02:36:49;5;3;
74333;PMS5003;62753;40.394;-80.022;2023-02-16T02:39:15;3;3;
74333;PMS5003;62753;40.394;-80.022;2023-02-16T02:41:40;7;4;
74333;PMS5003;62753;40.394;-80.022;2023-02-16T02:44:03;5;4;
74333;PMS5003;62753;40.394;-80.022;2023-02-16T02:46:29;2;1;
74333;PMS5003;62753;40.394;-80.022;2023-02-16T02:48:53;4;2;
74333;PMS5003;62753;40.394;-80.022;2023-02-16T02:51:18;3;3;
74333;PMS5003;62753;40.394;-80.022;2023-02-16T02:53:46;4;3;
74333;PMS5003;62753;40.394;-80.022;2023-02-16T02:56:10;3;3;
74333;PMS5003;62753;40.394;-80.022;2023-02-16T02:58:35;5;3;
74333;PMS5003;62753;40.394;-80.022;2023-02-16T03:01:00;4;4;
74333;PMS5003;62753;40.394;-80.022;2023-02-16T03:03:27;3;3;
74333;PMS5003;62753;40.394;-80.022;2023-02-16T03:05:52;3;3;
74333;PMS5003;62753;40.394;-80.022;2023-02-16T03:08:17;3;3;
74333;PMS5003;62753;40.394;-80.022;2023-02-16T03:10:43;3;3;
74333;PMS5003;62753;40.394;-80.022;2023-02-16T03:13:09;2;2;
74333;PMS5003;62753;40.394;-80.022;2023-02-16T03:15:32;3;2;
74333;PMS5003;62753;40.394;-80.022;2023-02-16T03:17:57;3;3;
74333;PMS5003;62753;40.394;-80.022;2023-02-16T03:20:22;4;3;
74333;PMS5003;62753;40.394;-80.022;2023-02-16T03:22:47;5;3;
74333;PMS5003;62753;40.394;-80.022;2023-02-16T03:25:13;5;3;
74333;PMS5003;62753;40.394;-80.022;2023-02-16T03:27:38;6;3;
74333;PMS5003;62753;40.394;-80.022;2023-02-16T03:30:04;6;5;
74333;PMS5003;62753;40.394;-80.022;2023-02-16T03:32:29;4;3;
74333;PMS5003;62753;40.394;-80.022;2023-02-16T03:34:54;4;3;
74333;PMS5003;62753;40.394;-80.022;2023-02-16T03:37:19;2;2;
74333;PMS5003;62753;40.394;-80.022;2023-02-16T03:39:44;2;2;
74333;PMS5003;62753;40.394;-80.022;2023-02-16T03:42:10;4;3;
74333;PMS5003;62753;40.394;-80.022;2023-02-16T03:44:35;6;3;
74333;PMS5003;62753;40.394;-80.022;2023-02-16T03:47:00;3;2;
74333;PMS5003;62753;40.394;-80.022;2023-02-16T03:49:25;4;2;
74333;PMS5003;62753;40.394;-80.022;2023-02-16T03:51:51;5;3;
74333;PMS5003;62753;40.394;-80.022;2023-02-16T03:54:16;6;4;
74333;PMS5003;62753;40.394;-80.022;2023-02-16T03:56:41;6;5;
74333;PMS5003;62753;40.394;-80.022;2023-02-16T03:59:07;3;2;
74333;PMS5003;62753;40.394;-80.022;2023-02-16T04:01:33;4;4;
74333;PMS5003;62753;40.394;-80.022;2023-02-16T04:03:58;6;5;
74333;PMS5003;62753;40.394;-80.022;2023-02-16T04:06:23;5;4;
74333;PMS5003;62753;40.394;-80.022;2023-02-16T04:08:48;3;3;
74333;PMS5003;62753;40.394;-80.022;2023-02-16T04:11:13;5;4;
74333;PMS5003;62753;40.394;-80.022;2023-02-16T04:13:39;4;3;
74333;PMS5003;62753;40.394;-80.022;2023-02-16T04:16:04;3;2;
74333;PMS5003;62753;40.394;-80.022;2023-02-16T04:18:29;3;2;
74333;PMS5003;62753;40.394;-80.022;2023-02-16T04:20:55;3;2;
74333;PMS5003;62753;40.394;-80.022;2023-02-16T04:23:20;2;2;
74333;PMS5003;62753;40.394;-80.022;2023-02-16T04:25:45;6;4;
74333;PMS5003;62753;40.394;-80.022;2023-02-16T04:28:10;1;1;
74333;PMS5003;62753;40.394;-80.022;2023-02-16T04:30:36;5;3;
74333;PMS5003;62753;40.394;-80.022;2023-02-16T04:33:01;2;2;
74333;PMS5003;62753;40.394;-80.022;2023-02-16T04:35:26;3;3;
74333;PMS5003;62753;40.394;-80.022;2023-02-16T04:37:52;2;2;
74333;PMS5003;62753;40.394;-80.022;2023-02-16T04:40:17;2;2;
74333;PMS5003;62753;40.394;-80.022;2023-02-16T04:42:43;5;3;
74333;PMS5003;62753;40.394;-80.022;2023-02-16T04:45:09;3;2;
74333;PMS5003;62753;40.394;-80.022;2023-02-16T04:47:33;2;2;
74333;PMS5003;62753;40.394;-80.022;2023-02-16T04:49:58;4;2;
74333;PMS5003;62753;40.394;-80.022;2023-02-16T04:52:24;4;4;
74333;PMS5003;62753;40.394;-80.022;2023-02-16T04:54:50;2;2;
74333;PMS5003;62753;40.394;-80.022;2023-02-16T04:57:15;3;3;
74333;PMS5003;62753;40.394;-80.022;2023-02-16T04:59:40;6;5;
74333;PMS5003;62753;40.394;-80.022;2023-02-16T05:02:06;6;5;
74333;PMS5003;62753;40.394;-80.022;2023-02-16T05:04:32;8;4;
74333;PMS5003;62753;40.394;-80.022;2023-02-16T05:06:57;5;3;
74333;PMS5003;62753;40.394;-80.022;2023-02-16T05:09:22;5;4;
74333;PMS5003;62753;40.394;-80.022;2023-02-16T05:11:47;5;3;
74333;PMS5003;62753;40.394;-80.022;2023-02-16T05:14:16;6;5;
74333;PMS5003;62753;40.394;-80.022;2023-02-16T05:16:38;3;2;
74333;PMS5003;62753;40.394;-80.022;2023-02-16T05:19:03;3;3;
74333;PMS5003;62753;40.394;-80.022;2023-02-16T05:21:28;5;3;
74333;PMS5003;62753;40.394;-80.022;2023-02-16T05:23:54;4;3;
74333;PMS5003;62753;40.394;-80.022;2023-02-16T05:26:19;5;3;
74333;PMS5003;62753;40.394;-80.022;2023-02-16T05:28:44;4;3;
74333;PMS5003;62753;40.394;-80.022;2023-02-16T05:31:10;3;3;
74333;PMS5003;62753;40.394;-80.022;2023-02-16T05:33:35;5;3;
74333;PMS5003;62753;40.394;-80.022;2023-02-16T05:36:00;3;3;
74333;PMS5003;62753;40.394;-80.022;2023-02-16T05:38:25;5;4;
74333;PMS5003;62753;40.394;-80.022;2023-02-16T05:40:51;6;4;
74333;PMS5003;62753;40.394;-80.022;2023-02-16T05:43:16;5;5;
74333;PMS5003;62753;40.394;-80.022;2023-02-16T05:45:41;5;3;
74333;PMS5003;62753;40.394;-80.022;2023-02-16T05:48:07;5;3;
74333;PMS5003;62753;40.394;-80.022;2023-02-16T05:50:32;3;2;
74333;PMS5003;62753;40.394;-80.022;2023-02-16T05:52:57;3;3;
74333;PMS5003;62753;40.394;-80.022;2023-02-16T05:55:22;4;3;
74333;PMS5003;62753;40.394;-80.022;2023-02-16T05:57:48;4;3;
74333;PMS5003;62753;40.394;-80.022;2023-02-16T06:00:13;4;3;
74333;PMS5003;62753;40.394;-80.022;2023-02-16T06:02:39;6;4;
74333;PMS5003;62753;40.394;-80.022;2023-02-16T06:05:05;7;4;
74333;PMS5003;62753;40.394;-80.022;2023-02-16T06:07:29;4;3;
74333;PMS5003;62753;40.394;-80.022;2023-02-16T06:09:54;4;3;
74333;PMS5003;62753;40.394;-80.022;2023-02-16T06:12:20;4;2;
74333;PMS5003;62753;40.394;-80.022;2023-02-16T06:14:45;5;4;
74333;PMS5003;62753;40.394;-80.022;2023-02-16T06:17:11;5;4;
74333;PMS5003;62753;40.394;-80.022;2023-02-16T06:19:36;6;4;
74333;PMS5003;62753;40.394;-80.022;2023-02-16T06:22:02;2;2;
74333;PMS5003;62753;40.394;-80.022;2023-02-16T06:24:27;6;4;
74333;PMS5003;62753;40.394;-80.022;2023-02-16T06:26:52;8;5;
74333;PMS5003;62753;40.394;-80.022;2023-02-16T06:29:17;4;3;
74333;PMS5003;62753;40.394;-80.022;2023-02-16T06:31:42;5;4;
74333;PMS5003;62753;40.394;-80.022;2023-02-16T06:34:08;6;5;
74333;PMS5003;62753;40.394;-80.022;2023-02-16T06:36:33;4;4;
74333;PMS5003;62753;40.394;-80.022;2023-02-16T06:38:58;6;6;
74333;PMS5003;62753;40.394;-80.022;2023-02-16T06:41:24;4;4;
74333;PMS5003;62753;40.394;-80.022;2023-02-16T06:43:49;6;2;
74333;PMS5003;62753;40.394;-80.022;2023-02-16T06:46:14;5;3;
74333;PMS5003;62753;40.394;-80.022;2023-02-16T06:48:40;5;2;
74333;PMS5003;62753;40.394;-80.022;2023-02-16T06:51:05;4;4;
74333;PMS5003;62753;40.394;-80.022;2023-02-16T06:53:31;5;4;
74333;PMS5003;62753;40.394;-80.022;2023-02-16T06:55:56;8;4;
74333;PMS5003;62753;40.394;-80.022;2023-02-16T06:58:21;6;3;
74333;PMS5003;62753;40.394;-80.022;2023-02-16T07:00:47;6;5;
74333;PMS5003;62753;40.394;-80.022;2023-02-16T07:03:13;2;2;
74333;PMS5003;62753;40.394;-80.022;2023-02-16T07:05:38;3;3;
74333;PMS5003;62753;40.394;-80.022;2023-02-16T07:08:03;5;4;
74333;PMS5003;62753;40.394;-80.022;2023-02-16T07:10:29;4;4;
74333;PMS5003;62753;40.394;-80.022;2023-02-16T07:12:54;1;1;
74333;PMS5003;62753;40.394;-80.022;2023-02-16T07:15:19;5;4;
74333;PMS5003;62753;40.394;-80.022;2023-02-16T07:17:45;3;3;
74333;PMS5003;62753;40.394;-80.022;2023-02-16T07:20:10;4;4;
74333;PMS5003;62753;40.394;-80.022;2023-02-16T07:22:35;6;5;
74333;PMS5003;62753;40.394;-80.022;2023-02-16T07:25:01;3;3;
74333;PMS5003;62753;40.394;-80.022;2023-02-16T07:27:26;5;4;
74333;PMS5003;62753;40.394;-80.022;2023-02-16T07:29:52;5;4;
74333;PMS5003;62753;40.394;-80.022;2023-02-16T07:32:17;7;4;
74333;PMS5003;62753;40.394;-80.022;2023-02-16T07:34:43;4;3;
74333;PMS5003;62753;40.394;-80.022;2023-02-16T07:37:08;5;4;
74333;PMS5003;62753;40.394;-80.022;2023-02-16T07:39:33;5;4;
74333;PMS5003;62753;40.394;-80.022;2023-02-16T07:41:59;3;2;
74333;PMS5003;62753;40.394;-80.022;2023-02-16T07:44:24;4;4;
74333;PMS5003;62753;40.394;-80.022;2023-02-16T07:46:49;4;4;
74333;PMS5003;62753;40.394;-80.022;2023-02-16T07:49:15;4;4;
74333;PMS5003;62753;40.394;-80.022;2023-02-16T07:51:40;6;4;
74333;PMS5003;62753;40.394;-80.022;2023-02-16T07:54:06;4;3;
74333;PMS5003;62753;40.394;-80.022;2023-02-16T07:56:32;6;3;
74333;PMS5003;62753;40.394;-80.022;2023-02-16T07:58:57;4;4;
74333;PMS5003;62753;40.394;-80.022;2023-02-16T08:01:22;5;4;
74333;PMS5003;62753;40.394;-80.022;2023-02-16T08:03:47;5;4;
74333;PMS5003;62753;40.394;-80.022;2023-02-16T08:06:13;5;5;
74333;PMS5003;62753;40.394;-80.022;2023-02-16T08:08:38;7;5;
74333;PMS5003;62753;40.394;-80.022;2023-02-16T08:11:07;3;3;
74333;PMS5003;62753;40.394;-80.022;2023-02-16T08:13:28;6;2;
74333;PMS5003;62753;40.394;-80.022;2023-02-16T08:15:54;4;3;
74333;PMS5003;62753;40.394;-80.022;2023-02-16T08:18:19;5;4;
74333;PMS5003;62753;40.394;-80.022;2023-02-16T08:20:44;4;3;
74333;PMS5003;62753;40.394;-80.022;2023-02-16T08:23:09;5;3;
74333;PMS5003;62753;40.394;-80.022;2023-02-16T08:25:34;4;3;
74333;PMS5003;62753;40.394;-80.022;2023-02-16T08:28:00;3;3;
74333;PMS5003;62753;40.394;-80.022;2023-02-16T08:30:25;5;4;
74333;PMS5003;62753;40.394;-80.022;2023-02-16T08:32:50;6;5;
74333;PMS5003;62753;40.394;-80.022;2023-02-16T08:35:16;4;3;
74333;PMS5003;62753;40.394;-80.022;2023-02-16T08:37:41;2;2;
74333;PMS5003;62753;40.394;-80.022;2023-02-16T08:40:07;5;4;
74333;PMS5003;62753;40.394;-80.022;2023-02-16T08:42:32;5;3;
74333;PMS5003;62753;40.394;-80.022;2023-02-16T08:44:57;3;3;
74333;PMS5003;62753;40.394;-80.022;2023-02-16T08:47:22;3;3;
74333;PMS5003;62753;40.394;-80.022;2023-02-16T08:49:48;4;2;
74333;PMS5003;62753;40.394;-80.022;2023-02-16T08:52:13;4;3;
74333;PMS5003;62753;40.394;-80.022;2023-02-16T08:54:38;4;4;
74333;PMS5003;62753;40.394;-80.022;2023-02-16T08:57:04;2;1;
74333;PMS5003;62753;40.394;-80.022;2023-02-16T08:59:30;3;3;
74333;PMS5003;62753;40.394;-80.022;2023-02-16T09:01:55;2;2;
74333;PMS5003;62753;40.394;-80.022;2023-02-16T09:04:20;2;2;
74333;PMS5003;62753;40.394;-80.022;2023-02-16T09:06:46;4;4;
74333;PMS5003;62753;40.394;-80.022;2023-02-16T09:09:11;4;4;
74333;PMS5003;62753;40.394;-80.022;2023-02-16T09:11:36;6;3;
74333;PMS5003;62753;40.394;-80.022;2023-02-16T09:14:01;4;3;
74333;PMS5003;62753;40.394;-80.022;2023-02-16T09:16:27;3;3;
74333;PMS5003;62753;40.394;-80.022;2023-02-16T09:18:52;6;5;
74333;PMS5003;62753;40.394;-80.022;2023-02-16T09:21:18;4;3;
74333;PMS5003;62753;40.394;-80.022;2023-02-16T09:23:43;7;3;
74333;PMS5003;62753;40.394;-80.022;2023-02-16T09:26:08;6;4;
74333;PMS5003;62753;40.394;-80.022;2023-02-16T09:28:32;6;4;
74333;PMS5003;62753;40.394;-80.022;2023-02-16T09:30:58;6;3;
74333;PMS5003;62753;40.394;-80.022;2023-02-16T09:33:23;3;3;
74333;PMS5003;62753;40.394;-80.022;2023-02-16T09:35:48;5;4;
74333;PMS5003;62753;40.394;-80.022;2023-02-16T09:38:13;6;4;
74333;PMS5003;62753;40.394;-80.022;2023-02-16T09:40:39;6;4;
74333;PMS5003;62753;40.394;-80.022;2023-02-16T09:43:05;5;4;
74333;PMS5003;62753;40.394;-80.022;2023-02-16T09:45:29;5;5;
74333;PMS5003;62753;40.394;-80.022;2023-02-16T09:47:55;7;6;
74333;PMS5003;62753;40.394;-80.022;2023-02-16T09:50:21;10;8;
74333;PMS5003;62753;40.394;-80.022;2023-02-16T09:52:48;3;3;
74333;PMS5003;62753;40.394;-80.022;2023-02-16T09:55:11;6;5;
74333;PMS5003;62753;40.394;-80.022;2023-02-16T09:57:40;5;5;
74333;PMS5003;62753;40.394;-80.022;2023-02-16T10:00:03;5;5;
74333;PMS5003;62753;40.394;-80.022;2023-02-16T10:04:54;8;8;
74333;PMS5003;62753;40.394;-80.022;2023-02-16T10:07:20;13;8;
74333;PMS5003;62753;40.394;-80.022;2023-02-16T10:09:44;9;5;
74333;PMS5003;62753;40.394;-80.022;2023-02-16T10:12:10;8;7;
74333;PMS5003;62753;40.394;-80.022;2023-02-16T10:14:36;9;8;
74333;PMS5003;62753;40.394;-80.022;2023-02-16T10:17:02;10;8;
74333;PMS5003;62753;40.394;-80.022;2023-02-16T10:19:27;8;7;
74333;PMS5003;62753;40.394;-80.022;2023-02-16T10:21:52;11;9;
74333;PMS5003;62753;40.394;-80.022;2023-02-16T10:24:15;9;8;
74333;PMS5003;62753;40.394;-80.022;2023-02-16T10:26:41;6;5;
74333;PMS5003;62753;40.394;-80.022;2023-02-16T10:29:06;9;8;
74333;PMS5003;62753;40.394;-80.022;2023-02-16T10:31:33;11;8;
74333;PMS5003;62753;40.394;-80.022;2023-02-16T10:34:04;8;8;
74333;PMS5003;62753;40.394;-80.022;2023-02-16T10:36:26;8;7;
74333;PMS5003;62753;40.394;-80.022;2023-02-16T10:38:48;10;8;
74333;PMS5003;62753;40.394;-80.022;2023-02-16T10:41:15;10;8;
74333;PMS5003;62753;40.394;-80.022;2023-02-16T10:43:40;9;8;
74333;PMS5003;62753;40.394;-80.022;2023-02-16T10:46:03;10;10;
74333;PMS5003;62753;40.394;-80.022;2023-02-16T10:48:29;11;9;
74333;PMS5003;62753;40.394;-80.022;2023-02-16T10:50:55;9;9;
74333;PMS5003;62753;40.394;-80.022;2023-02-16T10:53:20;12;9;
74333;PMS5003;62753;40.394;-80.022;2023-02-16T10:55:45;13;10;
74333;PMS5003;62753;40.394;-80.022;2023-02-16T10:58:14;10;10;
74333;PMS5003;62753;40.394;-80.022;2023-02-16T11:00:38;13;11;
74333;PMS5003;62753;40.394;-80.022;2023-02-16T11:03:01;10;9;
74333;PMS5003;62753;40.394;-80.022;2023-02-16T11:05:28;13;9;
74333;PMS5003;62753;40.394;-80.022;2023-02-16T11:07:53;9;9;
74333;PMS5003;62753;40.394;-80.022;2023-02-16T11:10:19;8;7;
74333;PMS5003;62753;40.394;-80.022;2023-02-16T11:12:43;9;8;
74333;PMS5003;62753;40.394;-80.022;2023-02-16T11:15:20;8;7;
74333;PMS5003;62753;40.394;-80.022;2023-02-16T11:20:00;8;7;
74333;PMS5003;62753;40.394;-80.022;2023-02-16T11:22:27;9;8;
74333;PMS5003;62753;40.394;-80.022;2023-02-16T11:24:49;11;8;
74333;PMS5003;62753;40.394;-80.022;2023-02-16T11:27:16;11;8;
74333;PMS5003;62753;40.394;-80.022;2023-02-16T11:29:41;12;11;
74333;PMS5003;62753;40.394;-80.022;2023-02-16T11:32:07;9;8;
74333;PMS5003;62753;40.394;-80.022;2023-02-16T11:34:32;9;9;
74333;PMS5003;62753;40.394;-80.022;2023-02-16T11:37:01;8;8;
74333;PMS5003;62753;40.394;-80.022;2023-02-16T11:39:23;10;9;
74333;PMS5003;62753;40.394;-80.022;2023-02-16T11:41:48;7;7;
74333;PMS5003;62753;40.394;-80.022;2023-02-16T11:44:19;9;8;
74333;PMS5003;62753;40.394;-80.022;2023-02-16T11:46:38;11;9;
74333;PMS5003;62753;40.394;-80.022;2023-02-16T11:51:30;11;10;
74333;PMS5003;62753;40.394;-80.022;2023-02-16T11:53:58;10;10;
74333;PMS5003;62753;40.394;-80.022;2023-02-16T11:56:21;10;9;
74333;PMS5003;62753;40.394;-80.022;2023-02-16T11:58:45;9;8;
74333;PMS5003;62753;40.394;-80.022;2023-02-16T12:01:16;9;8;
74333;PMS5003;62753;40.394;-80.022;2023-02-16T12:06:06;7;7;
74333;PMS5003;62753;40.394;-80.022;2023-02-16T12:08:30;14;11;
74333;PMS5003;62753;40.394;-80.022;2023-02-16T12:10:58;10;10;
74333;PMS5003;62753;40.394;-80.022;2023-02-16T12:13:20;7;7;
74333;PMS5003;62753;40.394;-80.022;2023-02-16T12:15:45;10;8;
74333;PMS5003;62753;40.394;-80.022;2023-02-16T12:20:36;11;10;
74333;PMS5003;62753;40.394;-80.022;2023-02-16T12:23:02;10;9;
74333;PMS5003;62753;40.394;-80.022;2023-02-16T12:25:26;8;7;
74333;PMS5003;62753;40.394;-80.022;2023-02-16T12:27:51;8;6;
74333;PMS5003;62753;40.394;-80.022;2023-02-16T12:30:19;10;9;
74333;PMS5003;62753;40.394;-80.022;2023-02-16T12:32:43;11;11;
74333;PMS5003;62753;40.394;-80.022;2023-02-16T12:35:11;8;8;
74333;PMS5003;62753;40.394;-80.022;2023-02-16T12:37:33;9;7;
74333;PMS5003;62753;40.394;-80.022;2023-02-16T12:39:59;9;8;
74333;PMS5003;62753;40.394;-80.022;2023-02-16T12:42:28;10;9;
74333;PMS5003;62753;40.394;-80.022;2023-02-16T12:44:48;12;10;
74333;PMS5003;62753;40.394;-80.022;2023-02-16T12:47:14;9;8;
74333;PMS5003;62753;40.394;-80.022;2023-02-16T12:49:41;10;9;
74333;PMS5003;62753;40.394;-80.022;2023-02-16T12:52:05;9;9;
74333;PMS5003;62753;40.394;-80.022;2023-02-16T12:54:30;9;8;
74333;PMS5003;62753;40.394;-80.022;2023-02-16T12:56:56;9;7;
74333;PMS5003;62753;40.394;-80.022;2023-02-16T12:59:21;10;9;
74333;PMS5003;62753;40.394;-80.022;2023-02-16T13:01:45;8;6;
74333;PMS5003;62753;40.394;-80.022;2023-02-16T13:04:14;10;9;
74333;PMS5003;62753;40.394;-80.022;2023-02-16T13:06:37;12;10;
74333;PMS5003;62753;40.394;-80.022;2023-02-16T13:09:04;12;9;
74333;PMS5003;62753;40.394;-80.022;2023-02-16T13:11:29;10;8;
74333;PMS5003;62753;40.394;-80.022;2023-02-16T13:13:51;10;9;
74333;PMS5003;62753;40.394;-80.022;2023-02-16T13:16:18;10;9;
74333;PMS5003;62753;40.394;-80.022;2023-02-16T13:18:43;11;8;
74333;PMS5003;62753;40.394;-80.022;2023-02-16T13:21:09;12;8;
74333;PMS5003;62753;40.394;-80.022;2023-02-16T13:23:36;11;9;
74333;PMS5003;62753;40.394;-80.022;2023-02-16T13:26:02;11;9;
74333;PMS5003;62753;40.394;-80.022;2023-02-16T13:28:31;8;8;
74333;PMS5003;62753;40.394;-80.022;2023-02-16T13:30:54;7;6;
74333;PMS5003;62753;40.394;-80.022;2023-02-16T13:33:19;9;9;
74333;PMS5003;62753;40.394;-80.022;2023-02-16T13:35:46;11;10;
74333;PMS5003;62753;40.394;-80.022;2023-02-16T13:38:12;9;9;
74333;PMS5003;62753;40.394;-80.022;2023-02-16T13:40:36;8;8;
74333;PMS5003;62753;40.394;-80.022;2023-02-16T13:43:09;8;7;
74333;PMS5003;62753;40.394;-80.022;2023-02-16T13:45:22;7;7;
74333;PMS5003;62753;40.394;-80.022;2023-02-16T13:47:47;9;9;
74333;PMS5003;62753;40.394;-80.022;2023-02-16T13:52:38;8;7;
74333;PMS5003;62753;40.394;-80.022;2023-02-16T13:55:04;9;8;
74333;PMS5003;62753;40.394;-80.022;2023-02-16T13:59:57;10;8;
74333;PMS5003;62753;40.394;-80.022;2023-02-16T14:12:01;8;6;
74333;PMS5003;62753;40.394;-80.022;2023-02-16T14:14:27;8;8;
74333;PMS5003;62753;40.394;-80.022;2023-02-16T14:16:51;7;7;
74333;PMS5003;62753;40.394;-80.022;2023-02-16T14:19:17;8;7;
74333;PMS5003;62753;40.394;-80.022;2023-02-16T14:21:42;10;10;
74333;PMS5003;62753;40.394;-80.022;2023-02-16T14:24:10;10;9;
74333;PMS5003;62753;40.394;-80.022;2023-02-16T14:29:00;8;6;
74333;PMS5003;62753;40.394;-80.022;2023-02-16T14:31:23;11;9;
74333;PMS5003;62753;40.394;-80.022;2023-02-16T14:33:51;9;8;
74333;PMS5003;62753;40.394;-80.022;2023-02-16T14:36:14;9;8;
74333;PMS5003;62753;40.394;-80.022;2023-02-16T14:38:41;11;10;
74333;PMS5003;62753;40.394;-80.022;2023-02-16T14:41:05;12;10;
74333;PMS5003;62753;40.394;-80.022;2023-02-16T14:43:30;13;9;
74333;PMS5003;62753;40.394;-80.022;2023-02-16T14:46:00;12;11;
74333;PMS5003;62753;40.394;-80.022;2023-02-16T14:48:25;9;9;
74333;PMS5003;62753;40.394;-80.022;2023-02-16T14:50:48;13;10;
74333;PMS5003;62753;40.394;-80.022;2023-02-16T14:53:18;9;9;
74333;PMS5003;62753;40.394;-80.022;2023-02-16T14:55:40;11;10;
74333;PMS5003;62753;40.394;-80.022;2023-02-16T14:58:03;10;10;
74333;PMS5003;62753;40.394;-80.022;2023-02-16T15:00:28;10;9;
74333;PMS5003;62753;40.394;-80.022;2023-02-16T15:02:53;9;8;
74333;PMS5003;62753;40.394;-80.022;2023-02-16T15:05:18;12;9;
74333;PMS5003;62753;40.394;-80.022;2023-02-16T15:07:42;11;10;
74333;PMS5003;62753;40.394;-80.022;2023-02-16T15:10:10;13;9;
74333;PMS5003;62753;40.394;-80.022;2023-02-16T15:12:33;14;10;
74333;PMS5003;62753;40.394;-80.022;2023-02-16T15:15:02;10;9;
74333;PMS5003;62753;40.394;-80.022;2023-02-16T15:17:27;13;11;
74333;PMS5003;62753;40.394;-80.022;2023-02-16T15:19:49;14;11;
74333;PMS5003;62753;40.394;-80.022;2023-02-16T15:22:17;13;12;
74333;PMS5003;62753;40.394;-80.022;2023-02-16T15:24:40;16;13;
74333;PMS5003;62753;40.394;-80.022;2023-02-16T15:27:05;8;8;
74333;PMS5003;62753;40.394;-80.022;2023-02-16T15:29:30;9;8;
74333;PMS5003;62753;40.394;-80.022;2023-02-16T15:31:57;14;11;
74333;PMS5003;62753;40.394;-80.022;2023-02-16T15:34:26;10;10;
74333;PMS5003;62753;40.394;-80.022;2023-02-16T15:36:47;14;13;
74333;PMS5003;62753;40.394;-80.022;2023-02-16T15:39:13;12;11;
74333;PMS5003;62753;40.394;-80.022;2023-02-16T15:41:39;12;11;
74333;PMS5003;62753;40.394;-80.022;2023-02-16T15:44:04;10;10;
74333;PMS5003;62753;40.394;-80.022;2023-02-16T15:46:29;11;9;
74333;PMS5003;62753;40.394;-80.022;2023-02-16T15:48:53;12;11;
74333;PMS5003;62753;40.394;-80.022;2023-02-16T15:51:20;13;11;
74333;PMS5003;62753;40.394;-80.022;2023-02-16T15:53:45;14;12;
74333;PMS5003;62753;40.394;-80.022;2023-02-16T15:56:19;12;10;
74333;PMS5003;62753;40.394;-80.022;2023-02-16T15:58:34;16;15;
74333;PMS5003;62753;40.394;-80.022;2023-02-16T16:00:59;24;21;
74333;PMS5003;62753;40.394;-80.022;2023-02-16T16:03:24;28;22;
74333;PMS5003;62753;40.394;-80.022;2023-02-16T16:05:53;27;20;
74333;PMS5003;62753;40.394;-80.022;2023-02-16T16:08:15;22;19;
74333;PMS5003;62753;40.394;-80.022;2023-02-16T16:10:40;24;21;
74333;PMS5003;62753;40.394;-80.022;2023-02-16T16:13:06;21;15;
74333;PMS5003;62753;40.394;-80.022;2023-02-16T16:15:32;18;11;
74333;PMS5003;62753;40.394;-80.022;2023-02-16T16:17:57;17;14;
74333;PMS5003;62753;40.394;-80.022;2023-02-16T16:20:26;19;16;
74333;PMS5003;62753;40.394;-80.022;2023-02-16T16:27:45;19;17;
74333;PMS5003;62753;40.394;-80.022;2023-02-16T16:30:08;20;20;
74333;PMS5003;62753;40.394;-80.022;2023-02-16T16:32:29;19;17;
74333;PMS5003;62753;40.394;-80.022;2023-02-16T16:34:55;20;17;